sensor_id;sensor_type;location;lat;lon;timestamp;P1;durP1;ratioP1;P2;durP2;ratioP2
47589;SDS011;33316;52.298;9.056;2024-02-14T00:01:20;1.67;;;1.00;;
47589;SDS011;33316;52.298;9.056;2024-02-14T00:03:49;1.00;;;0.68;;
47589;SDS011;33316;52.298;9.056;2024-02-14T00:06:16;0.82;;;0.60;;
47589;SDS011;33316;52.298;9.056;2024-02-14T00:08:43;1.88;;;1.00;;
47589;SDS011;33316;52.298;9.056;2024-02-14T00:11:10;2.80;;;1.10;;
47589;SDS011;33316;52.298;9.056;2024-02-14T00:13:39;1.77;;;1.02;;
47589;SDS011;33316;52.298;9.056;2024-02-14T00:16:07;3.10;;;1.17;;
47589;SDS011;33316;52.298;9.056;2024-02-14T00:18:35;1.60;;;0.88;;
47589;SDS011;33316;52.298;9.056;2024-02-14T00:21:02;2.05;;;0.80;;
47589;SDS011;33316;52.298;9.056;2024-02-14T00:23:29;1.23;;;0.77;;
47589;SDS011;33316;52.298;9.056;2024-02-14T00:25:56;1.10;;;0.85;;
47589;SDS011;33316;52.298;9.056;2024-02-14T00:28:23;0.85;;;0.80;;
47589;SDS011;33316;52.298;9.056;2024-02-14T00:30:51;1.20;;;0.73;;
47589;SDS011;33316;52.298;9.056;2024-02-14T00:33:20;1.42;;;0.82;;
47589;SDS011;33316;52.298;9.056;2024-02-14T00:35:47;1.38;;;0.82;;
47589;SDS011;33316;52.298;9.056;2024-02-14T00:38:14;2.75;;;1.20;;
47589;SDS011;33316;52.298;9.056;2024-02-14T00:40:40;1.55;;;1.10;;
47589;SDS011;33316;52.298;9.056;2024-02-14T00:43:07;1.30;;;0.80;;
47589;SDS011;33316;52.298;9.056;2024-02-14T00:45:34;1.50;;;1.00;;
47589;SDS011;33316;52.298;9.056;2024-02-14T00:48:03;3.92;;;1.00;;
47589;SDS011;33316;52.298;9.056;2024-02-14T00:50:32;3.10;;;1.00;;
47589;SDS011;33316;52.298;9.056;2024-02-14T00:52:59;2.38;;;1.00;;
47589;SDS011;33316;52.298;9.056;2024-02-14T00:55:26;1.55;;;0.70;;
47589;SDS011;33316;52.298;9.056;2024-02-14T00:57:53;0.85;;;0.80;;
47589;SDS011;33316;52.298;9.056;2024-02-14T01:00:19;3.95;;;0.85;;
47589;SDS011;33316;52.298;9.056;2024-02-14T01:02:46;3.08;;;1.00;;
47589;SDS011;33316;52.298;9.056;2024-02-14T01:05:13;2.60;;;1.10;;
47589;SDS011;33316;52.298;9.056;2024-02-14T01:07:41;1.55;;;1.05;;
47589;SDS011;33316;52.298;9.056;2024-02-14T01:10:08;1.73;;;0.88;;
47589;SDS011;33316;52.298;9.056;2024-02-14T01:12:35;0.85;;;0.65;;
47589;SDS011;33316;52.298;9.056;2024-02-14T01:15:02;1.30;;;0.80;;
47589;SDS011;33316;52.298;9.056;2024-02-14T01:17:29;2.13;;;1.00;;
47589;SDS011;33316;52.298;9.056;2024-02-14T01:19:56;1.10;;;0.80;;
47589;SDS011;33316;52.298;9.056;2024-02-14T01:22:24;2.80;;;1.05;;
47589;SDS011;33316;52.298;9.056;2024-02-14T01:24:52;1.50;;;0.93;;
47589;SDS011;33316;52.298;9.056;2024-02-14T01:27:19;2.50;;;1.10;;
47589;SDS011;33316;52.298;9.056;2024-02-14T01:29:47;2.10;;;1.00;;
47589;SDS011;33316;52.298;9.056;2024-02-14T01:32:14;2.28;;;1.02;;
47589;SDS011;33316;52.298;9.056;2024-02-14T01:34:42;2.42;;;0.85;;
47589;SDS011;33316;52.298;9.056;2024-02-14T01:37:09;1.08;;;0.80;;
47589;SDS011;33316;52.298;9.056;2024-02-14T01:39:36;1.75;;;0.88;;
47589;SDS011;33316;52.298;9.056;2024-02-14T01:42:04;2.20;;;0.93;;
47589;SDS011;33316;52.298;9.056;2024-02-14T01:44:32;2.03;;;0.95;;
47589;SDS011;33316;52.298;9.056;2024-02-14T01:46:59;2.45;;;1.23;;
47589;SDS011;33316;52.298;9.056;2024-02-14T01:49:26;2.22;;;1.13;;
47589;SDS011;33316;52.298;9.056;2024-02-14T01:51:54;2.45;;;0.82;;
47589;SDS011;33316;52.298;9.056;2024-02-14T01:54:25;3.50;;;1.10;;
47589;SDS011;33316;52.298;9.056;2024-02-14T01:56:52;1.38;;;0.77;;
47589;SDS011;33316;52.298;9.056;2024-02-14T01:59:22;1.80;;;0.93;;
47589;SDS011;33316;52.298;9.056;2024-02-14T02:01:50;0.95;;;0.80;;
47589;SDS011;33316;52.298;9.056;2024-02-14T02:04:17;4.40;;;1.50;;
47589;SDS011;33316;52.298;9.056;2024-02-14T02:06:44;1.45;;;0.70;;
47589;SDS011;33316;52.298;9.056;2024-02-14T02:09:11;1.90;;;0.93;;
47589;SDS011;33316;52.298;9.056;2024-02-14T02:11:47;1.65;;;0.90;;
47589;SDS011;33316;52.298;9.056;2024-02-14T02:14:14;1.55;;;0.70;;
47589;SDS011;33316;52.298;9.056;2024-02-14T02:16:43;1.42;;;0.90;;
47589;SDS011;33316;52.298;9.056;2024-02-14T02:19:11;1.10;;;0.73;;
47589;SDS011;33316;52.298;9.056;2024-02-14T02:21:38;1.35;;;0.70;;
47589;SDS011;33316;52.298;9.056;2024-02-14T02:24:07;1.10;;;0.82;;
47589;SDS011;33316;52.298;9.056;2024-02-14T02:26:33;3.10;;;1.15;;
47589;SDS011;33316;52.298;9.056;2024-02-14T02:29:00;2.90;;;1.00;;
47589;SDS011;33316;52.298;9.056;2024-02-14T02:31:27;1.77;;;1.00;;
47589;SDS011;33316;52.298;9.056;2024-02-14T02:33:56;1.00;;;0.90;;
47589;SDS011;33316;52.298;9.056;2024-02-14T02:36:23;1.30;;;0.80;;
47589;SDS011;33316;52.298;9.056;2024-02-14T02:38:50;1.42;;;0.80;;
47589;SDS011;33316;52.298;9.056;2024-02-14T02:41:18;1.92;;;0.90;;
47589;SDS011;33316;52.298;9.056;2024-02-14T02:43:44;1.42;;;0.93;;
47589;SDS011;33316;52.298;9.056;2024-02-14T02:46:14;2.85;;;0.98;;
47589;SDS011;33316;52.298;9.056;2024-02-14T02:48:41;4.40;;;1.13;;
47589;SDS011;33316;52.298;9.056;2024-02-14T02:51:08;1.25;;;0.80;;
47589;SDS011;33316;52.298;9.056;2024-02-14T02:53:35;1.45;;;0.95;;
47589;SDS011;33316;52.298;9.056;2024-02-14T02:56:03;3.33;;;1.27;;
47589;SDS011;33316;52.298;9.056;2024-02-14T02:58:31;3.05;;;0.90;;
47589;SDS011;33316;52.298;9.056;2024-02-14T03:00:59;2.35;;;1.30;;
47589;SDS011;33316;52.298;9.056;2024-02-14T03:03:25;2.15;;;0.93;;
47589;SDS011;33316;52.298;9.056;2024-02-14T03:05:53;1.10;;;0.80;;
47589;SDS011;33316;52.298;9.056;2024-02-14T03:08:21;1.58;;;0.98;;
47589;SDS011;33316;52.298;9.056;2024-02-14T03:10:50;1.52;;;0.90;;
47589;SDS011;33316;52.298;9.056;2024-02-14T03:13:17;0.90;;;0.80;;
47589;SDS011;33316;52.298;9.056;2024-02-14T03:15:46;1.67;;;1.10;;
47589;SDS011;33316;52.298;9.056;2024-02-14T03:18:13;3.17;;;1.25;;
47589;SDS011;33316;52.298;9.056;2024-02-14T03:20:40;3.45;;;1.20;;
47589;SDS011;33316;52.298;9.056;2024-02-14T03:23:07;1.77;;;1.00;;
47589;SDS011;33316;52.298;9.056;2024-02-14T03:25:33;2.70;;;1.25;;
47589;SDS011;33316;52.298;9.056;2024-02-14T03:28:01;1.80;;;1.20;;
47589;SDS011;33316;52.298;9.056;2024-02-14T03:30:33;1.60;;;1.10;;
47589;SDS011;33316;52.298;9.056;2024-02-14T03:33:02;3.40;;;1.40;;
47589;SDS011;33316;52.298;9.056;2024-02-14T03:35:29;2.28;;;1.50;;
47589;SDS011;33316;52.298;9.056;2024-02-14T03:37:56;2.05;;;1.30;;
47589;SDS011;33316;52.298;9.056;2024-02-14T03:40:23;3.58;;;1.40;;
47589;SDS011;33316;52.298;9.056;2024-02-14T03:42:49;3.88;;;1.20;;
47589;SDS011;33316;52.298;9.056;2024-02-14T03:45:16;2.05;;;1.30;;
47589;SDS011;33316;52.298;9.056;2024-02-14T03:47:43;2.22;;;1.25;;
47589;SDS011;33316;52.298;9.056;2024-02-14T03:50:12;2.45;;;1.30;;
47589;SDS011;33316;52.298;9.056;2024-02-14T03:52:40;2.10;;;1.20;;
47589;SDS011;33316;52.298;9.056;2024-02-14T03:55:08;4.05;;;1.38;;
47589;SDS011;33316;52.298;9.056;2024-02-14T03:57:38;1.83;;;1.50;;
47589;SDS011;33316;52.298;9.056;2024-02-14T04:00:05;2.28;;;1.35;;
47589;SDS011;33316;52.298;9.056;2024-02-14T04:02:38;3.60;;;1.13;;
47589;SDS011;33316;52.298;9.056;2024-02-14T04:05:06;2.33;;;1.40;;
47589;SDS011;33316;52.298;9.056;2024-02-14T04:07:34;2.40;;;1.15;;
47589;SDS011;33316;52.298;9.056;2024-02-14T04:10:04;2.50;;;1.55;;
47589;SDS011;33316;52.298;9.056;2024-02-14T04:12:32;1.95;;;1.23;;
47589;SDS011;33316;52.298;9.056;2024-02-14T04:14:58;1.58;;;1.10;;
47589;SDS011;33316;52.298;9.056;2024-02-14T04:17:25;3.40;;;1.27;;
47589;SDS011;33316;52.298;9.056;2024-02-14T04:19:52;2.58;;;1.58;;
47589;SDS011;33316;52.298;9.056;2024-02-14T04:22:19;1.65;;;1.27;;
47589;SDS011;33316;52.298;9.056;2024-02-14T04:24:47;2.30;;;1.45;;
47589;SDS011;33316;52.298;9.056;2024-02-14T04:27:14;1.55;;;1.20;;
47589;SDS011;33316;52.298;9.056;2024-02-14T04:29:44;2.33;;;1.27;;
47589;SDS011;33316;52.298;9.056;2024-02-14T04:32:11;3.90;;;1.63;;
47589;SDS011;33316;52.298;9.056;2024-02-14T04:34:39;2.30;;;1.50;;
47589;SDS011;33316;52.298;9.056;2024-02-14T04:37:07;2.75;;;1.42;;
47589;SDS011;33316;52.298;9.056;2024-02-14T04:39:37;2.63;;;1.65;;
47589;SDS011;33316;52.298;9.056;2024-02-14T04:42:05;2.40;;;1.50;;
47589;SDS011;33316;52.298;9.056;2024-02-14T04:44:33;2.70;;;1.55;;
47589;SDS011;33316;52.298;9.056;2024-02-14T04:47:00;1.77;;;1.30;;
47589;SDS011;33316;52.298;9.056;2024-02-14T04:49:27;1.58;;;1.13;;
47589;SDS011;33316;52.298;9.056;2024-02-14T04:51:55;2.20;;;1.30;;
47589;SDS011;33316;52.298;9.056;2024-02-14T04:54:22;2.22;;;1.25;;
47589;SDS011;33316;52.298;9.056;2024-02-14T04:56:50;2.60;;;1.38;;
47589;SDS011;33316;52.298;9.056;2024-02-14T04:59:18;2.22;;;1.25;;
47589;SDS011;33316;52.298;9.056;2024-02-14T05:01:45;2.45;;;1.52;;
47589;SDS011;33316;52.298;9.056;2024-02-14T05:04:12;1.92;;;1.33;;
47589;SDS011;33316;52.298;9.056;2024-02-14T05:06:39;3.13;;;1.70;;
47589;SDS011;33316;52.298;9.056;2024-02-14T05:09:07;1.83;;;1.30;;
47589;SDS011;33316;52.298;9.056;2024-02-14T05:11:35;3.30;;;1.42;;
47589;SDS011;33316;52.298;9.056;2024-02-14T05:14:02;3.03;;;1.40;;
47589;SDS011;33316;52.298;9.056;2024-02-14T05:16:30;1.38;;;1.17;;
47589;SDS011;33316;52.298;9.056;2024-02-14T05:18:57;2.35;;;1.35;;
47589;SDS011;33316;52.298;9.056;2024-02-14T05:21:24;1.40;;;0.90;;
47589;SDS011;33316;52.298;9.056;2024-02-14T05:23:50;2.53;;;1.10;;
47589;SDS011;33316;52.298;9.056;2024-02-14T05:26:17;1.83;;;1.20;;
47589;SDS011;33316;52.298;9.056;2024-02-14T05:28:44;3.97;;;1.50;;
47589;SDS011;33316;52.298;9.056;2024-02-14T05:31:11;2.67;;;1.20;;
47589;SDS011;33316;52.298;9.056;2024-02-14T05:33:39;3.47;;;1.65;;
47589;SDS011;33316;52.298;9.056;2024-02-14T05:36:06;3.30;;;1.38;;
47589;SDS011;33316;52.298;9.056;2024-02-14T05:38:33;1.90;;;1.00;;
47589;SDS011;33316;52.298;9.056;2024-02-14T05:41:01;1.98;;;1.10;;
47589;SDS011;33316;52.298;9.056;2024-02-14T05:43:27;2.00;;;1.35;;
47589;SDS011;33316;52.298;9.056;2024-02-14T05:45:54;2.65;;;1.40;;
47589;SDS011;33316;52.298;9.056;2024-02-14T05:48:21;2.15;;;1.42;;
47589;SDS011;33316;52.298;9.056;2024-02-14T05:50:49;1.75;;;1.20;;
47589;SDS011;33316;52.298;9.056;2024-02-14T05:53:16;1.67;;;1.00;;
47589;SDS011;33316;52.298;9.056;2024-02-14T05:55:43;1.17;;;1.08;;
47589;SDS011;33316;52.298;9.056;2024-02-14T05:58:09;1.70;;;1.25;;
47589;SDS011;33316;52.298;9.056;2024-02-14T06:00:36;1.50;;;1.10;;
47589;SDS011;33316;52.298;9.056;2024-02-14T06:03:04;2.30;;;1.30;;
47589;SDS011;33316;52.298;9.056;2024-02-14T06:05:32;2.78;;;1.55;;
47589;SDS011;33316;52.298;9.056;2024-02-14T06:08:00;3.20;;;1.40;;
47589;SDS011;33316;52.298;9.056;2024-02-14T06:10:28;2.60;;;1.30;;
47589;SDS011;33316;52.298;9.056;2024-02-14T06:12:54;1.30;;;1.08;;
47589;SDS011;33316;52.298;9.056;2024-02-14T06:15:21;1.83;;;1.02;;
47589;SDS011;33316;52.298;9.056;2024-02-14T06:17:48;1.23;;;1.00;;
47589;SDS011;33316;52.298;9.056;2024-02-14T06:20:15;1.27;;;0.88;;
47589;SDS011;33316;52.298;9.056;2024-02-14T06:22:42;2.42;;;1.10;;
47589;SDS011;33316;52.298;9.056;2024-02-14T06:25:10;2.05;;;1.20;;
47589;SDS011;33316;52.298;9.056;2024-02-14T06:27:36;1.63;;;1.30;;
47589;SDS011;33316;52.298;9.056;2024-02-14T06:30:03;1.77;;;1.15;;
47589;SDS011;33316;52.298;9.056;2024-02-14T06:32:31;2.85;;;1.27;;
47589;SDS011;33316;52.298;9.056;2024-02-14T06:34:57;1.90;;;1.10;;
47589;SDS011;33316;52.298;9.056;2024-02-14T06:37:24;1.17;;;0.85;;
47589;SDS011;33316;52.298;9.056;2024-02-14T06:39:51;1.10;;;0.93;;
47589;SDS011;33316;52.298;9.056;2024-02-14T06:42:19;1.42;;;0.98;;
47589;SDS011;33316;52.298;9.056;2024-02-14T06:44:46;0.85;;;0.77;;
47589;SDS011;33316;52.298;9.056;2024-02-14T06:47:12;1.52;;;1.00;;
47589;SDS011;33316;52.298;9.056;2024-02-14T06:49:39;1.65;;;1.02;;
47589;SDS011;33316;52.298;9.056;2024-02-14T06:52:06;1.13;;;0.88;;
47589;SDS011;33316;52.298;9.056;2024-02-14T06:54:33;1.00;;;0.90;;
47589;SDS011;33316;52.298;9.056;2024-02-14T06:56:59;3.20;;;1.00;;
47589;SDS011;33316;52.298;9.056;2024-02-14T06:59:28;0.90;;;0.80;;
47589;SDS011;33316;52.298;9.056;2024-02-14T07:01:54;1.27;;;0.93;;
47589;SDS011;33316;52.298;9.056;2024-02-14T07:04:21;0.88;;;0.68;;
47589;SDS011;33316;52.298;9.056;2024-02-14T07:06:51;1.55;;;1.25;;
47589;SDS011;33316;52.298;9.056;2024-02-14T07:09:18;0.95;;;0.80;;
47589;SDS011;33316;52.298;9.056;2024-02-14T07:11:45;0.93;;;0.82;;
47589;SDS011;33316;52.298;9.056;2024-02-14T07:14:12;1.05;;;0.95;;
47589;SDS011;33316;52.298;9.056;2024-02-14T07:16:40;1.10;;;0.90;;
47589;SDS011;33316;52.298;9.056;2024-02-14T07:19:07;0.93;;;0.90;;
47589;SDS011;33316;52.298;9.056;2024-02-14T07:21:34;1.13;;;1.00;;
47589;SDS011;33316;52.298;9.056;2024-02-14T07:24:03;1.13;;;1.00;;
47589;SDS011;33316;52.298;9.056;2024-02-14T07:26:30;1.00;;;0.90;;
47589;SDS011;33316;52.298;9.056;2024-02-14T07:28:57;0.98;;;0.90;;
47589;SDS011;33316;52.298;9.056;2024-02-14T07:31:23;0.80;;;0.80;;
47589;SDS011;33316;52.298;9.056;2024-02-14T07:33:55;0.93;;;0.63;;
47589;SDS011;33316;52.298;9.056;2024-02-14T07:36:22;0.90;;;0.70;;
47589;SDS011;33316;52.298;9.056;2024-02-14T07:38:49;1.00;;;0.90;;
47589;SDS011;33316;52.298;9.056;2024-02-14T07:41:16;1.40;;;0.82;;
47589;SDS011;33316;52.298;9.056;2024-02-14T07:43:43;1.58;;;0.80;;
47589;SDS011;33316;52.298;9.056;2024-02-14T07:46:09;1.52;;;1.05;;
47589;SDS011;33316;52.298;9.056;2024-02-14T07:48:37;1.02;;;0.80;;
47589;SDS011;33316;52.298;9.056;2024-02-14T07:51:08;1.05;;;0.95;;
47589;SDS011;33316;52.298;9.056;2024-02-14T07:53:34;1.27;;;1.17;;
47589;SDS011;33316;52.298;9.056;2024-02-14T07:56:01;1.50;;;1.13;;
47589;SDS011;33316;52.298;9.056;2024-02-14T07:58:28;1.88;;;1.40;;
47589;SDS011;33316;52.298;9.056;2024-02-14T08:00:55;1.27;;;1.17;;
47589;SDS011;33316;52.298;9.056;2024-02-14T08:03:22;1.35;;;1.25;;
47589;SDS011;33316;52.298;9.056;2024-02-14T08:05:49;1.17;;;1.08;;
47589;SDS011;33316;52.298;9.056;2024-02-14T08:08:18;1.77;;;1.60;;
47589;SDS011;33316;52.298;9.056;2024-02-14T08:10:46;3.70;;;1.77;;
47589;SDS011;33316;52.298;9.056;2024-02-14T08:13:13;2.42;;;1.88;;
47589;SDS011;33316;52.298;9.056;2024-02-14T08:15:41;3.25;;;2.45;;
47589;SDS011;33316;52.298;9.056;2024-02-14T08:18:08;2.42;;;2.22;;
47589;SDS011;33316;52.298;9.056;2024-02-14T08:20:35;2.78;;;2.50;;
47589;SDS011;33316;52.298;9.056;2024-02-14T08:23:02;3.00;;;2.70;;
47589;SDS011;33316;52.298;9.056;2024-02-14T08:25:30;3.17;;;2.88;;
47589;SDS011;33316;52.298;9.056;2024-02-14T08:27:57;3.85;;;3.30;;
47589;SDS011;33316;52.298;9.056;2024-02-14T08:30:23;4.47;;;3.53;;
47589;SDS011;33316;52.298;9.056;2024-02-14T08:32:51;4.97;;;3.97;;
47589;SDS011;33316;52.298;9.056;2024-02-14T08:35:17;3.80;;;3.38;;
47589;SDS011;33316;52.298;9.056;2024-02-14T08:37:44;4.65;;;3.67;;
47589;SDS011;33316;52.298;9.056;2024-02-14T08:40:11;3.25;;;2.95;;
47589;SDS011;33316;52.298;9.056;2024-02-14T08:42:39;3.90;;;3.50;;
47589;SDS011;33316;52.298;9.056;2024-02-14T08:45:06;4.70;;;3.58;;
47589;SDS011;33316;52.298;9.056;2024-02-14T08:47:34;4.57;;;4.03;;
47589;SDS011;33316;52.298;9.056;2024-02-14T08:50:01;6.18;;;4.20;;
47589;SDS011;33316;52.298;9.056;2024-02-14T08:52:29;5.25;;;4.35;;
47589;SDS011;33316;52.298;9.056;2024-02-14T08:54:56;5.28;;;4.22;;
47589;SDS011;33316;52.298;9.056;2024-02-14T08:57:23;4.72;;;4.05;;
47589;SDS011;33316;52.298;9.056;2024-02-14T08:59:52;4.57;;;3.63;;
47589;SDS011;33316;52.298;9.056;2024-02-14T09:02:19;4.03;;;3.63;;
47589;SDS011;33316;52.298;9.056;2024-02-14T09:04:47;4.72;;;4.07;;
47589;SDS011;33316;52.298;9.056;2024-02-14T09:07:15;6.55;;;4.22;;
47589;SDS011;33316;52.298;9.056;2024-02-14T09:09:42;4.72;;;3.28;;
47589;SDS011;33316;52.298;9.056;2024-02-14T09:12:09;5.30;;;3.95;;
47589;SDS011;33316;52.298;9.056;2024-02-14T09:14:35;4.43;;;3.65;;
47589;SDS011;33316;52.298;9.056;2024-02-14T09:17:04;4.65;;;4.20;;
47589;SDS011;33316;52.298;9.056;2024-02-14T09:19:30;4.82;;;4.05;;
47589;SDS011;33316;52.298;9.056;2024-02-14T09:21:58;5.20;;;4.13;;
47589;SDS011;33316;52.298;9.056;2024-02-14T09:24:25;4.72;;;4.22;;
47589;SDS011;33316;52.298;9.056;2024-02-14T09:26:51;5.53;;;4.10;;
47589;SDS011;33316;52.298;9.056;2024-02-14T09:29:18;4.70;;;3.72;;
47589;SDS011;33316;52.298;9.056;2024-02-14T09:31:45;4.60;;;3.90;;
47589;SDS011;33316;52.298;9.056;2024-02-14T09:34:15;4.18;;;3.78;;
47589;SDS011;33316;52.298;9.056;2024-02-14T09:36:43;4.00;;;3.63;;
47589;SDS011;33316;52.298;9.056;2024-02-14T09:39:10;5.05;;;4.38;;
47589;SDS011;33316;52.298;9.056;2024-02-14T09:41:37;4.13;;;3.72;;
47589;SDS011;33316;52.298;9.056;2024-02-14T09:44:08;4.03;;;3.63;;
47589;SDS011;33316;52.298;9.056;2024-02-14T09:46:35;3.85;;;3.45;;
47589;SDS011;33316;52.298;9.056;2024-02-14T09:49:03;4.20;;;3.80;;
47589;SDS011;33316;52.298;9.056;2024-02-14T09:51:32;5.38;;;3.65;;
47589;SDS011;33316;52.298;9.056;2024-02-14T09:54:00;3.42;;;3.10;;
47589;SDS011;33316;52.298;9.056;2024-02-14T09:56:27;3.92;;;3.15;;
47589;SDS011;33316;52.298;9.056;2024-02-14T09:58:57;4.18;;;3.33;;
47589;SDS011;33316;52.298;9.056;2024-02-14T10:01:28;4.45;;;3.28;;
47589;SDS011;33316;52.298;9.056;2024-02-14T10:03:57;4.40;;;2.90;;
47589;SDS011;33316;52.298;9.056;2024-02-14T10:06:28;4.25;;;3.10;;
47589;SDS011;33316;52.298;9.056;2024-02-14T10:09:00;3.42;;;2.47;;
47589;SDS011;33316;52.298;9.056;2024-02-14T10:11:28;3.30;;;2.83;;
47589;SDS011;33316;52.298;9.056;2024-02-14T10:13:59;3.08;;;2.75;;
47589;SDS011;33316;52.298;9.056;2024-02-14T10:16:29;3.05;;;2.70;;
47589;SDS011;33316;52.298;9.056;2024-02-14T10:18:58;3.55;;;3.20;;
47589;SDS011;33316;52.298;9.056;2024-02-14T10:21:30;2.90;;;2.60;;
47589;SDS011;33316;52.298;9.056;2024-02-14T10:24:01;3.40;;;2.97;;
47589;SDS011;33316;52.298;9.056;2024-02-14T10:26:29;3.25;;;2.92;;
47589;SDS011;33316;52.298;9.056;2024-02-14T10:28:58;3.40;;;2.92;;
47589;SDS011;33316;52.298;9.056;2024-02-14T10:31:27;3.28;;;2.97;;
47589;SDS011;33316;52.298;9.056;2024-02-14T10:33:57;5.90;;;3.42;;
47589;SDS011;33316;52.298;9.056;2024-02-14T10:36:28;4.85;;;4.00;;
47589;SDS011;33316;52.298;9.056;2024-02-14T10:39:07;3.13;;;2.83;;
47589;SDS011;33316;52.298;9.056;2024-02-14T10:41:38;4.93;;;3.38;;
47589;SDS011;33316;52.298;9.056;2024-02-14T10:44:06;3.50;;;2.83;;
47589;SDS011;33316;52.298;9.056;2024-02-14T10:46:37;3.60;;;2.78;;
47589;SDS011;33316;52.298;9.056;2024-02-14T10:49:07;3.17;;;2.88;;
47589;SDS011;33316;52.298;9.056;2024-02-14T10:51:37;4.03;;;3.53;;
47589;SDS011;33316;52.298;9.056;2024-02-14T10:54:10;3.57;;;3.23;;
47589;SDS011;33316;52.298;9.056;2024-02-14T10:56:40;3.55;;;2.97;;
47589;SDS011;33316;52.298;9.056;2024-02-14T10:59:12;4.70;;;3.70;;
47589;SDS011;33316;52.298;9.056;2024-02-14T11:01:41;3.60;;;3.27;;
47589;SDS011;33316;52.298;9.056;2024-02-14T11:04:13;3.23;;;2.93;;
47589;SDS011;33316;52.298;9.056;2024-02-14T11:09:15;3.10;;;2.75;;
47589;SDS011;33316;52.298;9.056;2024-02-14T11:11:44;4.03;;;3.10;;
47589;SDS011;33316;52.298;9.056;2024-02-14T11:14:14;4.55;;;3.80;;
47589;SDS011;33316;52.298;9.056;2024-02-14T11:16:45;4.50;;;4.10;;
47589;SDS011;33316;52.298;9.056;2024-02-14T11:19:14;4.32;;;3.83;;
47589;SDS011;33316;52.298;9.056;2024-02-14T11:21:44;4.40;;;3.63;;
47589;SDS011;33316;52.298;9.056;2024-02-14T11:26:45;4.32;;;3.92;;
47589;SDS011;33316;52.298;9.056;2024-02-14T11:29:20;5.57;;;4.72;;
47589;SDS011;33316;52.298;9.056;2024-02-14T11:31:59;7.70;;;4.15;;
47589;SDS011;33316;52.298;9.056;2024-02-14T11:34:31;4.30;;;3.88;;
47589;SDS011;33316;52.298;9.056;2024-02-14T11:37:02;4.50;;;4.10;;
47589;SDS011;33316;52.298;9.056;2024-02-14T11:39:34;4.55;;;4.07;;
47589;SDS011;33316;52.298;9.056;2024-02-14T11:42:05;5.35;;;4.22;;
47589;SDS011;33316;52.298;9.056;2024-02-14T11:44:34;5.97;;;4.97;;
47589;SDS011;33316;52.298;9.056;2024-02-14T11:47:03;6.00;;;5.05;;
47589;SDS011;33316;52.298;9.056;2024-02-14T11:49:35;5.13;;;4.63;;
47589;SDS011;33316;52.298;9.056;2024-02-14T11:52:05;6.65;;;4.68;;
47589;SDS011;33316;52.298;9.056;2024-02-14T11:54:39;6.97;;;5.05;;
47589;SDS011;33316;52.298;9.056;2024-02-14T11:57:07;5.68;;;4.97;;
47589;SDS011;33316;52.298;9.056;2024-02-14T11:59:35;7.40;;;5.28;;
47589;SDS011;33316;52.298;9.056;2024-02-14T12:02:03;6.03;;;4.85;;
47589;SDS011;33316;52.298;9.056;2024-02-14T12:04:32;5.55;;;4.95;;
47589;SDS011;33316;52.298;9.056;2024-02-14T12:07:02;5.53;;;5.03;;
47589;SDS011;33316;52.298;9.056;2024-02-14T12:09:30;5.30;;;4.57;;
47589;SDS011;33316;52.298;9.056;2024-02-14T12:11:59;6.18;;;4.95;;
47589;SDS011;33316;52.298;9.056;2024-02-14T12:14:29;5.38;;;4.40;;
47589;SDS011;33316;52.298;9.056;2024-02-14T12:17:00;5.00;;;4.50;;
47589;SDS011;33316;52.298;9.056;2024-02-14T12:19:32;5.45;;;4.93;;
47589;SDS011;33316;52.298;9.056;2024-02-14T12:22:02;4.72;;;4.25;;
47589;SDS011;33316;52.298;9.056;2024-02-14T12:24:43;5.03;;;4.30;;
47589;SDS011;33316;52.298;9.056;2024-02-14T12:27:14;5.47;;;4.25;;
47589;SDS011;33316;52.298;9.056;2024-02-14T12:29:45;4.30;;;3.90;;
47589;SDS011;33316;52.298;9.056;2024-02-14T12:32:16;5.88;;;4.68;;
47589;SDS011;33316;52.298;9.056;2024-02-14T12:34:45;4.80;;;4.40;;
47589;SDS011;33316;52.298;9.056;2024-02-14T12:37:13;4.95;;;4.30;;
47589;SDS011;33316;52.298;9.056;2024-02-14T12:39:41;5.72;;;4.75;;
47589;SDS011;33316;52.298;9.056;2024-02-14T12:42:10;4.53;;;4.13;;
47589;SDS011;33316;52.298;9.056;2024-02-14T12:44:39;4.75;;;4.25;;
47589;SDS011;33316;52.298;9.056;2024-02-14T12:47:08;5.35;;;4.85;;
47589;SDS011;33316;52.298;9.056;2024-02-14T12:49:37;4.05;;;3.65;;
47589;SDS011;33316;52.298;9.056;2024-02-14T12:52:05;6.00;;;4.30;;
47589;SDS011;33316;52.298;9.056;2024-02-14T12:54:32;6.22;;;4.22;;
47589;SDS011;33316;52.298;9.056;2024-02-14T12:57:00;3.65;;;3.35;;
47589;SDS011;33316;52.298;9.056;2024-02-14T12:59:28;4.68;;;4.05;;
47589;SDS011;33316;52.298;9.056;2024-02-14T13:01:58;5.00;;;4.38;;
47589;SDS011;33316;52.298;9.056;2024-02-14T13:04:32;4.15;;;3.72;;
47589;SDS011;33316;52.298;9.056;2024-02-14T13:07:04;3.67;;;3.38;;
47589;SDS011;33316;52.298;9.056;2024-02-14T13:09:34;5.18;;;3.67;;
47589;SDS011;33316;52.298;9.056;2024-02-14T13:12:04;4.25;;;3.75;;
47589;SDS011;33316;52.298;9.056;2024-02-14T13:17:04;3.03;;;2.72;;
47589;SDS011;33316;52.298;9.056;2024-02-14T13:19:35;3.00;;;2.70;;
47589;SDS011;33316;52.298;9.056;2024-02-14T13:22:05;3.22;;;2.92;;
47589;SDS011;33316;52.298;9.056;2024-02-14T13:24:33;3.50;;;3.17;;
47589;SDS011;33316;52.298;9.056;2024-02-14T13:27:04;5.00;;;3.37;;
47589;SDS011;33316;52.298;9.056;2024-02-14T13:29:33;2.80;;;2.60;;
47589;SDS011;33316;52.298;9.056;2024-02-14T13:32:01;3.70;;;2.90;;
47589;SDS011;33316;52.298;9.056;2024-02-14T13:34:33;2.05;;;1.85;;
47589;SDS011;33316;52.298;9.056;2024-02-14T13:37:01;2.30;;;2.10;;
47589;SDS011;33316;52.298;9.056;2024-02-14T13:39:30;2.35;;;2.08;;
47589;SDS011;33316;52.298;9.056;2024-02-14T13:44:30;2.63;;;2.42;;
47589;SDS011;33316;52.298;9.056;2024-02-14T13:47:01;2.75;;;2.33;;
47589;SDS011;33316;52.298;9.056;2024-02-14T13:49:31;4.15;;;2.58;;
47589;SDS011;33316;52.298;9.056;2024-02-14T13:51:59;3.15;;;2.42;;
47589;SDS011;33316;52.298;9.056;2024-02-14T13:54:28;3.53;;;2.65;;
47589;SDS011;33316;52.298;9.056;2024-02-14T13:56:57;3.90;;;2.70;;
47589;SDS011;33316;52.298;9.056;2024-02-14T13:59:24;3.90;;;2.90;;
47589;SDS011;33316;52.298;9.056;2024-02-14T14:01:53;3.22;;;2.50;;
47589;SDS011;33316;52.298;9.056;2024-02-14T14:04:24;5.00;;;3.40;;
47589;SDS011;33316;52.298;9.056;2024-02-14T14:06:54;3.17;;;2.70;;
47589;SDS011;33316;52.298;9.056;2024-02-14T14:09:22;3.08;;;2.80;;
47589;SDS011;33316;52.298;9.056;2024-02-14T14:11:50;4.20;;;2.72;;
47589;SDS011;33316;52.298;9.056;2024-02-14T14:14:17;2.80;;;2.50;;
47589;SDS011;33316;52.298;9.056;2024-02-14T14:16:44;3.50;;;2.80;;
47589;SDS011;33316;52.298;9.056;2024-02-14T14:19:15;2.63;;;2.42;;
47589;SDS011;33316;52.298;9.056;2024-02-14T14:21:45;3.15;;;2.67;;
47589;SDS011;33316;52.298;9.056;2024-02-14T14:24:12;3.53;;;2.75;;
47589;SDS011;33316;52.298;9.056;2024-02-14T14:26:41;3.78;;;3.08;;
47589;SDS011;33316;52.298;9.056;2024-02-14T14:29:10;3.38;;;2.95;;
47589;SDS011;33316;52.298;9.056;2024-02-14T14:31:39;3.90;;;3.35;;
47589;SDS011;33316;52.298;9.056;2024-02-14T14:34:07;4.28;;;3.25;;
47589;SDS011;33316;52.298;9.056;2024-02-14T14:36:36;5.70;;;3.30;;
47589;SDS011;33316;52.298;9.056;2024-02-14T14:39:10;5.57;;;4.00;;
47589;SDS011;33316;52.298;9.056;2024-02-14T14:41:38;6.05;;;4.22;;
47589;SDS011;33316;52.298;9.056;2024-02-14T14:44:08;5.18;;;4.10;;
47589;SDS011;33316;52.298;9.056;2024-02-14T14:46:37;6.93;;;4.70;;
47589;SDS011;33316;52.298;9.056;2024-02-14T14:49:08;7.00;;;5.00;;
47589;SDS011;33316;52.298;9.056;2024-02-14T14:51:36;7.30;;;5.13;;
47589;SDS011;33316;52.298;9.056;2024-02-14T14:54:05;5.45;;;4.63;;
47589;SDS011;33316;52.298;9.056;2024-02-14T14:56:36;9.35;;;5.97;;
47589;SDS011;33316;52.298;9.056;2024-02-14T14:59:05;8.20;;;5.72;;
47589;SDS011;33316;52.298;9.056;2024-02-14T15:01:32;8.48;;;5.25;;
47589;SDS011;33316;52.298;9.056;2024-02-14T15:04:01;8.38;;;6.43;;